createdAt,value
2018-03-26T00:01:13.145Z,75.80
2018-03-26T00:03:41.525Z,75.70
2018-03-26T00:06:09.779Z,75.50
2018-03-26T00:08:38.059Z,75.70
2018-03-26T00:11:06.335Z,75.40
2018-03-26T00:13:35.787Z,76.60
2018-03-26T00:16:04.146Z,76.70
2018-03-26T00:18:32.426Z,76.30
2018-03-26T00:21:00.828Z,76.40
2018-03-26T00:23:29.093Z,76.40
2018-03-26T00:25:59.230Z,76.20
2018-03-26T00:28:28.448Z,76.20
2018-03-26T00:30:58.083Z,76.60
2018-03-26T00:33:26.358Z,76.60
2018-03-26T00:35:55.525Z,76.70
2018-03-26T00:38:23.863Z,77.10
2018-03-26T00:40:52.958Z,77.20
2018-03-26T00:43:21.194Z,77.10
2018-03-26T00:45:49.520Z,77.60
2018-03-26T00:48:18.466Z,77.70
2018-03-26T00:50:46.754Z,78.20
2018-03-26T01:07:04.196Z,77.70
2018-03-26T01:09:32.474Z,77.50
2018-03-26T01:12:01.728Z,77.40
2018-03-26T01:14:29.958Z,77.50
2018-03-26T01:16:59.026Z,76.40
2018-03-26T01:19:27.305Z,77.70
2018-03-26T01:21:56.752Z,77.00
2018-03-26T01:24:26.647Z,76.90
2018-03-26T01:26:54.871Z,76.90
2018-03-26T01:29:23.960Z,76.70
2018-03-26T01:31:52.306Z,77.30
2018-03-26T01:34:22.250Z,76.50
2018-03-26T01:36:51.320Z,76.40
2018-03-26T01:39:20.352Z,76.20
2018-03-26T01:41:48.680Z,76.20
2018-03-26T01:44:17.759Z,77.20
2018-03-26T01:46:45.999Z,76.40
2018-03-26T01:49:14.280Z,76.10
2018-03-26T01:51:42.576Z,76.10
2018-03-26T01:54:11.675Z,76.10
2018-03-26T01:56:39.942Z,76.90
2018-03-26T01:59:08.327Z,77.20
2018-03-26T02:01:36.636Z,76.60
2018-03-26T02:04:06.864Z,77.20
2018-03-26T02:06:35.113Z,77.20
2018-03-26T02:09:03.421Z,77.50
2018-03-26T02:11:32.451Z,77.50
2018-03-26T02:14:00.913Z,77.50
2018-03-26T02:16:29.180Z,78.00
2018-03-26T02:18:57.452Z,77.40
2018-03-26T02:21:27.342Z,77.60
2018-03-26T02:23:55.587Z,77.50
2018-03-26T02:26:23.882Z,77.10
2018-03-26T02:28:52.162Z,76.70
2018-03-26T02:31:20.401Z,76.50
2018-03-26T02:33:49.991Z,76.50
2018-03-26T02:36:20.276Z,77.80
2018-03-26T02:38:48.539Z,77.90
2018-03-26T02:41:16.847Z,77.90
2018-03-26T02:43:45.179Z,78.70
2018-03-26T02:46:13.505Z,77.70
2018-03-26T02:48:41.753Z,77.30
2018-03-26T02:51:11.751Z,76.70
2018-03-26T02:53:40.011Z,76.60
2018-03-26T02:56:08.287Z,76.10
2018-03-26T02:58:36.573Z,76.00
2018-03-26T03:01:04.853Z,76.00
2018-03-26T03:03:33.127Z,76.30
2018-03-26T03:06:02.546Z,76.50
2018-03-26T03:08:30.791Z,76.40
2018-03-26T03:10:59.061Z,77.20
2018-03-26T03:13:27.424Z,77.10
2018-03-26T03:15:55.754Z,77.20
2018-03-26T03:18:24.032Z,77.30
2018-03-26T03:20:52.275Z,77.80
2018-03-26T03:23:20.580Z,77.90
2018-03-26T03:25:48.960Z,77.50
2018-03-26T03:28:17.188Z,78.10
2018-03-26T03:30:46.246Z,77.90
2018-03-26T03:33:15.271Z,78.50
2018-03-26T03:35:43.504Z,78.40
2018-03-26T03:38:11.766Z,77.70
2018-03-26T03:40:40.023Z,78.60
2018-03-26T03:43:08.670Z,78.60
2018-03-26T03:45:37.682Z,77.80
2018-03-26T03:48:06.038Z,77.80
2018-03-26T03:50:36.015Z,77.10
2018-03-26T03:53:04.286Z,77.00
2018-03-26T03:55:32.716Z,77.80
2018-03-26T03:58:01.759Z,77.50
2018-03-26T04:00:30.029Z,77.50
2018-03-26T04:02:58.764Z,77.50
2018-03-26T04:05:27.043Z,78.10
2018-03-26T04:07:56.126Z,77.90
2018-03-26T04:10:25.159Z,77.50
2018-03-26T04:12:53.435Z,77.50
2018-03-26T04:15:21.775Z,78.50
2018-03-26T04:17:50.134Z,77.50
2018-03-26T04:20:18.385Z,77.00
2018-03-26T04:22:46.644Z,76.70
2018-03-26T04:25:16.163Z,76.40
2018-03-26T04:27:44.446Z,77.20
2018-03-26T04:30:12.705Z,77.20
2018-03-26T04:32:40.971Z,77.20
2018-03-26T04:35:09.398Z,78.10
2018-03-26T04:37:38.767Z,78.90
2018-03-26T04:40:07.016Z,78.30
2018-03-26T04:42:35.294Z,78.00
2018-03-26T04:45:03.594Z,78.40
2018-03-26T04:47:31.861Z,78.40
2018-03-26T04:50:00.228Z,77.90
2018-03-26T04:52:28.645Z,77.60
2018-03-26T04:54:56.927Z,76.80
2018-03-26T04:57:25.170Z,77.20
2018-03-26T04:59:53.474Z,77.50
2018-03-26T05:02:23.239Z,77.60
2018-03-26T05:04:52.440Z,77.50
2018-03-26T05:07:20.727Z,77.10
2018-03-26T05:09:49.002Z,77.10
2018-03-26T05:12:17.279Z,76.70
2018-03-26T05:14:45.522Z,77.00
2018-03-26T05:17:14.587Z,77.00
2018-03-26T05:19:44.026Z,76.90
2018-03-26T05:22:12.229Z,77.10
2018-03-26T05:24:40.556Z,77.20
2018-03-26T05:27:08.816Z,76.90
2018-03-26T05:29:37.086Z,76.80
2018-03-26T05:32:06.381Z,77.20
2018-03-26T05:34:34.636Z,77.30
2018-03-26T05:37:02.906Z,77.20
2018-03-26T05:39:31.166Z,76.90
2018-03-26T05:42:00.409Z,77.40
2018-03-26T05:44:29.903Z,77.50
2018-03-26T05:46:58.180Z,77.50
2018-03-26T05:49:26.425Z,77.00
2018-03-26T05:51:54.754Z,77.00
2018-03-26T05:54:23.006Z,77.00
2018-03-26T05:56:51.309Z,77.50
2018-03-26T05:59:19.674Z,77.80
2018-03-26T06:01:47.917Z,78.10
2018-03-26T06:04:16.223Z,78.10
2018-03-26T06:06:44.500Z,77.90
2018-03-26T06:09:13.518Z,77.90
2018-03-26T06:11:41.773Z,77.70
2018-03-26T06:14:10.022Z,77.20
2018-03-26T06:16:50.290Z,77.60
2018-03-26T06:19:18.529Z,77.00
2018-03-26T06:21:46.793Z,77.60
2018-03-26T06:24:15.853Z,77.30
2018-03-26T06:26:44.123Z,77.20
2018-03-26T06:29:12.397Z,76.60
2018-03-26T06:31:40.646Z,76.60
2018-03-26T06:34:08.893Z,76.50
2018-03-26T07:01:10.858Z,76.40
2018-03-26T07:03:39.894Z,76.60
2018-03-26T07:06:08.147Z,76.40
2018-03-26T07:08:36.390Z,75.60
2018-03-26T07:11:06.514Z,75.80
2018-03-26T07:13:34.923Z,76.60
2018-03-26T07:16:03.690Z,75.30
2018-03-26T07:18:31.984Z,75.90
2018-03-26T07:21:00.289Z,74.80
2018-03-26T07:23:30.181Z,75.30
2018-03-26T07:26:01.399Z,74.40
2018-03-26T07:28:30.573Z,74.60
2018-03-26T07:30:58.970Z,74.90
2018-03-26T07:33:27.223Z,75.80
2018-03-26T07:35:55.625Z,75.00
2018-03-26T07:38:23.923Z,74.90
2018-03-26T07:40:53.458Z,74.40
2018-03-26T07:43:22.596Z,74.70
2018-03-26T07:45:52.028Z,74.70
2018-03-26T07:48:21.238Z,75.20
2018-03-26T07:50:50.410Z,74.90
2018-03-26T07:53:18.783Z,74.70
2018-03-26T07:55:48.244Z,75.50
2018-03-26T07:58:16.499Z,76.10
2018-03-26T08:00:44.901Z,75.40
2018-03-26T08:03:13.227Z,75.30
2018-03-26T08:05:42.245Z,76.70
2018-03-26T08:08:10.519Z,76.20
2018-03-26T08:10:39.632Z,75.30
2018-03-26T08:13:07.880Z,75.30
2018-03-26T08:15:37.061Z,75.40
2018-03-26T08:18:05.439Z,75.60
2018-03-26T08:20:33.731Z,75.90
2018-03-26T08:23:01.987Z,74.50
2018-03-26T08:25:30.249Z,74.40
2018-03-26T08:27:58.581Z,74.50
2018-03-26T08:30:27.655Z,74.10
2018-03-26T08:32:56.794Z,74.10
2018-03-26T08:35:25.010Z,74.20
2018-03-26T08:37:53.325Z,73.10
2018-03-26T08:40:25.190Z,72.90
2018-03-26T08:42:53.473Z,72.90
2018-03-26T08:45:22.649Z,72.40
2018-03-26T08:47:50.922Z,72.40
2018-03-26T08:50:19.232Z,72.00
2018-03-26T08:52:47.511Z,72.10
2018-03-26T08:55:16.565Z,71.30
2018-03-26T08:57:45.584Z,72.10
2018-03-26T09:00:13.834Z,71.50
2018-03-26T09:02:45.814Z,72.70
2018-03-26T09:05:14.157Z,71.80
2018-03-26T09:07:42.448Z,72.60
2018-03-26T09:10:10.865Z,72.30
2018-03-26T09:12:39.921Z,73.00
2018-03-26T09:15:09.027Z,73.00
2018-03-26T09:17:37.364Z,72.50
2018-03-26T09:20:05.707Z,71.50
2018-03-26T09:22:34.778Z,71.10
2018-03-26T09:25:03.131Z,71.10
2018-03-26T09:27:31.432Z,71.30
2018-03-26T09:29:59.763Z,71.00
2018-03-26T09:32:28.096Z,71.20
2018-03-26T09:34:56.354Z,71.30
2018-03-26T09:37:24.604Z,71.30
2018-03-26T09:39:52.868Z,72.50
2018-03-26T09:42:21.904Z,71.60
2018-03-26T09:44:50.189Z,71.00
2018-03-26T09:47:18.467Z,70.50
2018-03-26T09:49:46.766Z,72.00
2018-03-26T09:52:15.800Z,71.30
2018-03-26T09:54:44.082Z,71.30
2018-03-26T09:57:12.402Z,71.30
2018-03-26T09:59:40.888Z,72.00
2018-03-26T10:02:09.974Z,72.80
2018-03-26T10:04:38.312Z,72.70
2018-03-26T10:07:06.672Z,72.70
2018-03-26T10:09:35.028Z,72.60
2018-03-26T10:12:03.638Z,72.40
2018-03-26T10:14:31.931Z,71.70
2018-03-26T10:17:01.750Z,71.40
2018-03-26T10:19:29.971Z,72.60
2018-03-26T10:21:59.135Z,70.60
2018-03-26T10:24:27.407Z,70.60
2018-03-26T10:26:57.134Z,70.30
2018-03-26T10:29:25.449Z,69.40
2018-03-26T10:31:55.018Z,69.70
2018-03-26T10:34:23.274Z,68.50
2018-03-26T10:36:52.510Z,66.90
2018-03-26T10:39:21.582Z,66.10
2018-03-26T10:41:49.862Z,66.10
2018-03-26T10:44:19.630Z,63.40
2018-03-26T10:46:47.941Z,63.40
2018-03-26T10:49:19.901Z,63.00
2018-03-26T10:51:48.142Z,62.80
2018-03-26T10:54:18.086Z,61.10
2018-03-26T10:56:46.576Z,61.00
2018-03-26T10:59:14.839Z,60.40
2018-03-26T11:01:43.124Z,59.70
2018-03-26T11:04:11.407Z,59.90
2018-03-26T11:06:39.735Z,59.40
2018-03-26T11:09:09.570Z,59.10
2018-03-26T11:11:37.817Z,61.00
2018-03-26T11:14:06.241Z,60.70
2018-03-26T11:16:35.775Z,58.50
2018-03-26T11:19:04.051Z,58.90
2018-03-26T11:21:32.298Z,58.40
2018-03-26T11:24:01.481Z,57.10
2018-03-26T11:26:29.747Z,56.00
2018-03-26T11:28:58.055Z,56.50
2018-03-26T11:31:27.165Z,56.80
2018-03-26T11:33:56.055Z,56.70
2018-03-26T11:36:24.403Z,56.80
2018-03-26T11:38:52.634Z,56.40
2018-03-26T11:41:21.643Z,58.00
2018-03-26T11:43:49.946Z,58.10
2018-03-26T11:46:18.179Z,58.40
2018-03-26T11:48:46.487Z,58.30
2018-03-26T11:51:14.898Z,59.00
2018-03-26T11:53:44.401Z,59.50
2018-03-26T11:56:12.647Z,59.60
2018-03-26T11:58:41.058Z,60.80
2018-03-26T12:01:09.346Z,61.60
2018-03-26T12:03:37.666Z,60.50
2018-03-26T12:06:06.065Z,58.80
2018-03-26T12:08:34.428Z,57.90
2018-03-26T12:11:02.715Z,56.90
2018-03-26T12:13:31.007Z,55.80
2018-03-26T12:15:59.299Z,54.30
2018-03-26T12:18:27.549Z,54.40
2018-03-26T12:21:00.377Z,55.70
2018-03-26T12:23:41.275Z,53.70
2018-03-26T12:26:09.539Z,53.60
2018-03-26T12:28:50.464Z,54.30
2018-03-26T12:31:18.765Z,54.30
2018-03-26T12:33:59.662Z,55.50
2018-03-26T12:36:28.746Z,57.40
2018-03-26T12:38:57.016Z,57.40
2018-03-26T12:41:26.080Z,57.40
2018-03-26T12:43:54.359Z,57.30
2018-03-26T12:46:34.590Z,58.40
2018-03-26T12:49:02.905Z,58.10
2018-03-26T12:51:44.542Z,58.30
2018-03-26T12:54:13.738Z,58.20
2018-03-26T12:56:42.027Z,58.70
2018-03-26T12:59:10.358Z,57.90
2018-03-26T13:01:51.803Z,57.60
2018-03-26T13:04:20.030Z,57.40
2018-03-26T13:06:49.155Z,58.10
2018-03-26T13:09:17.476Z,58.10
2018-03-26T13:11:45.706Z,57.80
2018-03-26T13:14:13.960Z,55.70
2018-03-26T13:16:43.068Z,56.20
2018-03-26T13:19:11.399Z,56.20
2018-03-26T13:21:39.735Z,56.70
2018-03-26T13:24:08.016Z,56.30
2018-03-26T13:26:36.314Z,56.10
2018-03-26T13:29:05.871Z,57.10
2018-03-26T13:31:34.891Z,56.00
2018-03-26T13:34:03.175Z,56.00
2018-03-26T13:36:31.449Z,55.30
2018-03-26T13:38:59.756Z,56.70
2018-03-26T13:41:29.166Z,56.30
2018-03-26T13:43:59.163Z,57.70
2018-03-26T13:46:27.424Z,57.60
2018-03-26T13:48:55.675Z,56.90
2018-03-26T13:51:24.888Z,57.90
2018-03-26T13:53:56.859Z,57.50
2018-03-26T13:56:25.120Z,57.00
2018-03-26T13:58:53.510Z,56.60
2018-03-26T14:01:22.573Z,56.30
2018-03-26T14:03:50.914Z,58.00
2018-03-26T14:06:19.210Z,58.10
2018-03-26T14:08:59.330Z,57.80
2018-03-26T14:11:39.532Z,57.50
2018-03-26T14:14:20.505Z,58.20
2018-03-26T14:17:01.332Z,59.10
2018-03-26T14:19:30.790Z,59.00
2018-03-26T14:21:59.826Z,58.90
2018-03-26T14:24:28.109Z,58.90
2018-03-26T14:26:56.355Z,59.10
2018-03-26T14:29:25.534Z,59.30
2018-03-26T14:31:54.702Z,58.90
2018-03-26T14:34:22.958Z,58.80
2018-03-26T14:36:52.490Z,59.60
2018-03-26T14:39:20.740Z,59.30
2018-03-26T14:41:49.015Z,60.00
2018-03-26T14:44:17.414Z,59.40
2018-03-26T14:46:45.717Z,60.00
2018-03-26T14:49:14.745Z,61.10
2018-03-26T14:51:43.022Z,61.00
2018-03-26T14:54:11.281Z,61.50
2018-03-26T14:56:39.530Z,61.90
2018-03-26T14:59:08.563Z,62.80
2018-03-26T15:01:36.876Z,62.80
2018-03-26T15:04:05.118Z,63.80
2018-03-26T15:06:33.418Z,63.90
2018-03-26T15:09:01.658Z,64.00
2018-03-26T15:11:29.940Z,63.80
2018-03-26T15:13:58.276Z,64.10
2018-03-26T15:16:26.580Z,64.80
2018-03-26T15:18:54.887Z,64.80
2018-03-26T15:21:23.139Z,65.00
2018-03-26T15:23:51.413Z,64.20
2018-03-26T15:26:19.682Z,64.20
2018-03-26T15:28:47.935Z,64.30
2018-03-26T15:31:16.946Z,60.60
2018-03-26T15:33:45.234Z,60.60
2018-03-26T15:36:15.209Z,59.60
2018-03-26T15:38:43.619Z,59.60
2018-03-26T15:41:11.894Z,59.50
2018-03-26T15:43:40.158Z,58.90
2018-03-26T15:46:08.449Z,58.50
2018-03-26T15:48:36.709Z,57.50
2018-03-26T15:51:04.989Z,56.80
2018-03-26T15:53:34.013Z,57.30
2018-03-26T15:56:02.352Z,57.30
2018-03-26T15:58:30.608Z,56.50
2018-03-26T16:00:58.857Z,57.50
2018-03-26T16:03:33.616Z,56.90
2018-03-26T16:06:01.994Z,57.50
2018-03-26T16:08:30.225Z,58.50
2018-03-26T16:10:59.148Z,59.30
2018-03-26T16:13:27.357Z,59.60
2018-03-26T16:15:56.370Z,61.20
2018-03-26T16:18:24.691Z,61.20
2018-03-26T16:20:53.099Z,61.50
2018-03-26T16:23:21.366Z,62.70
2018-03-26T16:25:50.506Z,61.80
2018-03-26T16:28:18.760Z,61.80
2018-03-26T16:30:47.101Z,62.70
2018-03-26T16:33:15.361Z,63.50
2018-03-26T16:35:43.610Z,64.30
2018-03-26T16:38:12.721Z,64.40
2018-03-26T16:40:41.730Z,63.60
2018-03-26T16:43:10.008Z,62.80
2018-03-26T16:45:38.299Z,63.20
2018-03-26T16:48:06.636Z,63.40
2018-03-26T16:50:35.009Z,63.30
2018-03-26T16:53:03.257Z,63.90
2018-03-26T16:55:32.341Z,65.20
2018-03-26T16:58:00.702Z,65.20
2018-03-26T17:00:29.064Z,66.10
2018-03-26T17:02:57.332Z,66.60
2018-03-26T17:05:25.856Z,67.20
2018-03-26T17:07:54.191Z,67.60
2018-03-26T17:10:22.448Z,68.30
2018-03-26T17:12:50.737Z,68.80
2018-03-26T17:15:19.047Z,69.30
2018-03-26T17:17:47.340Z,69.60
2018-03-26T17:20:15.679Z,69.70
2018-03-26T17:22:43.951Z,70.40
2018-03-26T17:25:12.988Z,70.60
2018-03-26T17:27:42.041Z,71.50
2018-03-26T17:30:10.313Z,71.40
2018-03-26T17:32:38.619Z,71.60
2018-03-26T17:35:07.500Z,72.20
2018-03-26T17:37:35.763Z,72.70
2018-03-26T17:40:04.118Z,73.10
2018-03-26T17:42:32.443Z,73.30
2018-03-26T17:45:00.754Z,73.90
2018-03-26T17:47:29.034Z,74.20
2018-03-26T17:49:57.342Z,74.50
2018-03-26T17:52:25.610Z,75.00
2018-03-26T17:54:53.871Z,74.90
2018-03-26T17:57:22.158Z,75.30
2018-03-26T17:59:50.460Z,75.50
2018-03-26T18:02:18.733Z,75.90
2018-03-26T18:04:47.059Z,76.00
2018-03-26T18:07:16.102Z,76.90
2018-03-26T18:09:44.393Z,76.90
2018-03-26T18:12:14.326Z,77.20
2018-03-26T18:14:43.384Z,77.50
2018-03-26T18:17:11.696Z,77.40
2018-03-26T18:19:40.749Z,77.80
2018-03-26T18:22:09.568Z,77.80
2018-03-26T18:24:37.868Z,78.10
2018-03-26T18:27:06.937Z,78.60
2018-03-26T18:29:35.226Z,78.60
2018-03-26T18:32:04.280Z,78.90
2018-03-26T18:34:32.663Z,78.90
2018-03-26T18:37:00.986Z,79.30
2018-03-26T18:39:30.036Z,79.70
2018-03-26T18:41:58.461Z,79.60
2018-03-26T18:44:28.466Z,80.00
2018-03-26T18:46:56.781Z,79.90
2018-03-26T18:49:25.076Z,79.80
2018-03-26T18:51:53.344Z,79.60
2018-03-26T18:54:21.709Z,79.20
2018-03-26T18:56:51.065Z,78.70
2018-03-26T18:59:19.319Z,78.70
2018-03-26T19:01:47.630Z,78.80
2018-03-26T19:04:15.909Z,79.60
2018-03-26T19:06:45.040Z,78.60
2018-03-26T19:09:13.368Z,78.40
2018-03-26T19:11:41.746Z,77.70
2018-03-26T19:14:10.560Z,77.50
2018-03-26T19:19:13.309Z,76.30
2018-03-26T19:21:41.626Z,76.60
2018-03-26T19:24:10.688Z,75.70
2018-03-26T19:26:40.629Z,75.90
2018-03-26T19:29:09.840Z,75.90
2018-03-26T19:31:38.135Z,75.40
2018-03-26T19:34:08.065Z,75.70
2018-03-26T19:36:36.506Z,75.90
2018-03-26T19:39:06.839Z,76.80
2018-03-26T19:41:35.225Z,76.20
2018-03-26T19:44:03.712Z,76.20
2018-03-26T19:46:32.088Z,76.10
2018-03-26T19:49:00.568Z,75.90
2018-03-26T19:51:28.897Z,75.90
2018-03-26T19:53:58.184Z,76.10
2018-03-26T19:56:26.522Z,76.00
2018-03-26T19:58:54.899Z,76.00
2018-03-26T20:01:23.915Z,76.20
2018-03-26T20:03:52.255Z,76.30
2018-03-26T20:06:21.953Z,77.10
2018-03-26T20:08:51.077Z,76.50
2018-03-26T20:11:19.361Z,76.40
2018-03-26T20:13:47.732Z,76.60
2018-03-26T20:16:16.044Z,77.70
2018-03-26T20:18:44.316Z,77.40
2018-03-26T20:21:12.614Z,77.70
2018-03-26T20:23:40.911Z,77.50
2018-03-26T20:26:09.944Z,77.20
2018-03-26T20:28:38.285Z,77.20
2018-03-26T20:31:07.511Z,76.70
2018-03-26T20:33:35.838Z,76.30
2018-03-26T20:36:04.151Z,76.30
2018-03-26T20:38:32.433Z,76.50
2018-03-26T20:41:00.777Z,76.80
2018-03-26T20:43:29.288Z,76.60
2018-03-26T20:45:57.581Z,77.50
2018-03-26T20:48:25.883Z,77.10
2018-03-26T20:50:54.169Z,77.20
2018-03-26T20:53:22.506Z,76.60
2018-03-26T20:55:50.787Z,76.20
2018-03-26T20:58:20.304Z,76.30
2018-03-26T21:00:48.674Z,76.10
2018-03-26T21:03:18.965Z,75.90
2018-03-26T21:05:47.987Z,75.80
2018-03-26T21:08:17.529Z,75.90
2018-03-26T21:10:45.801Z,75.80
2018-03-26T21:13:14.094Z,75.40
2018-03-26T21:15:43.051Z,75.40
2018-03-26T21:18:11.318Z,75.80
2018-03-26T21:20:39.749Z,76.10
2018-03-26T21:23:08.999Z,76.20
2018-03-26T21:25:37.369Z,75.60
2018-03-26T21:28:05.868Z,75.20
2018-03-26T21:30:36.045Z,75.50
2018-03-26T21:33:05.221Z,76.50
2018-03-26T21:35:34.295Z,75.90
2018-03-26T21:38:02.664Z,75.90
2018-03-26T21:40:30.989Z,76.00
2018-03-26T21:43:00.020Z,76.20
2018-03-26T21:45:28.330Z,76.20
2018-03-26T21:47:56.707Z,76.20
2018-03-26T21:50:25.000Z,77.20
2018-03-26T21:52:54.069Z,76.10
2018-03-26T21:55:22.354Z,76.00
2018-03-26T21:57:50.644Z,76.80
2018-03-26T22:00:19.666Z,75.90
2018-03-26T22:02:48.681Z,75.80
2018-03-26T22:05:16.934Z,75.80
2018-03-26T22:07:45.208Z,75.80
2018-03-26T22:10:13.510Z,75.40
2018-03-26T22:12:41.796Z,75.70
2018-03-26T22:15:10.151Z,75.50
2018-03-26T22:17:38.412Z,75.50
2018-03-26T22:20:06.675Z,75.30
2018-03-26T22:22:35.703Z,75.30
2018-03-26T22:25:04.053Z,75.40
2018-03-26T22:27:32.454Z,75.20
2018-03-26T22:30:00.841Z,76.20
2018-03-26T22:32:29.158Z,75.80
2018-03-26T22:34:58.256Z,75.90
2018-03-26T22:37:26.595Z,76.00
2018-03-26T22:39:54.833Z,75.80
2018-03-26T22:42:23.891Z,75.50
2018-03-26T22:44:52.225Z,75.50
2018-03-26T22:47:20.492Z,76.00
2018-03-26T22:49:49.551Z,75.20
2018-03-26T22:52:17.827Z,75.40
2018-03-26T22:54:46.099Z,75.70
2018-03-26T22:57:14.502Z,75.50
2018-03-26T22:59:43.576Z,75.40
2018-03-26T23:02:11.926Z,75.40
2018-03-26T23:04:40.261Z,75.50
2018-03-26T23:07:08.642Z,75.60
2018-03-26T23:09:38.096Z,76.10
2018-03-26T23:12:07.542Z,76.10
2018-03-26T23:14:36.609Z,76.90
2018-03-26T23:17:04.862Z,76.70
2018-03-26T23:19:33.172Z,76.00
2018-03-26T23:22:02.196Z,76.20
2018-03-26T23:24:30.498Z,76.20
2018-03-26T23:26:58.776Z,76.00
2018-03-26T23:29:27.088Z,75.40
2018-03-26T23:31:55.465Z,75.90
2018-03-26T23:34:24.486Z,76.20
2018-03-26T23:36:52.760Z,76.20
2018-03-26T23:39:21.036Z,76.50
2018-03-26T23:41:52.971Z,76.00
2018-03-26T23:44:22.248Z,76.10
2018-03-26T23:46:50.559Z,76.50
2018-03-26T23:49:19.567Z,76.40
2018-03-26T23:51:47.849Z,76.40
2018-03-26T23:54:16.187Z,77.00
2018-03-26T23:56:46.014Z,77.40
2018-03-26T23:59:14.310Z,77.30
